createdAt,value
2023-01-28T00:01:43.138Z,101097.44
2023-01-28T00:04:12.090Z,101095.81
2023-01-28T00:06:40.689Z,101098.63
2023-01-28T00:09:09.319Z,101092.88
2023-01-28T00:11:38.055Z,101100.13
2023-01-28T00:14:07.711Z,101095.88
2023-01-28T00:16:37.655Z,101103.03
2023-01-28T00:19:06.175Z,101103.28
2023-01-28T00:21:34.732Z,101104.41
2023-01-28T00:24:03.455Z,101106.19
2023-01-28T00:26:32.041Z,101097.41
2023-01-28T00:29:00.577Z,101102.88
2023-01-28T00:31:29.507Z,101102.88
2023-01-28T00:33:59.456Z,101095.91
2023-01-28T00:36:28.909Z,101105.78
2023-01-28T00:38:59.688Z,101102.47
2023-01-28T00:41:30.102Z,101061.44
2023-01-28T00:44:00.415Z,101104.25
2023-01-28T00:46:30.103Z,101104.25
2023-01-28T00:48:59.973Z,101106.22
2023-01-28T00:51:28.559Z,101097.63
2023-01-28T00:53:57.156Z,101096.84
2023-01-28T00:56:25.748Z,101109.19
2023-01-28T00:58:54.578Z,101104.75
2023-01-28T01:01:25.186Z,101109.09
2023-01-28T01:03:57.882Z,101111.91
2023-01-28T01:06:27.895Z,101111.22
2023-01-28T01:08:56.385Z,101115.75
2023-01-28T01:11:25.107Z,101113.03
2023-01-28T01:13:56.964Z,101066.19
2023-01-28T01:16:28.343Z,101117.72
2023-01-28T01:18:57.958Z,101123.66
2023-01-28T01:21:29.734Z,101121.63
2023-01-28T01:23:58.443Z,101122.56
2023-01-28T01:26:27.578Z,101121.78
2023-01-28T01:28:58.947Z,101120.09
2023-01-28T01:31:27.551Z,101127.31
2023-01-28T01:33:56.143Z,101134.31
2023-01-28T01:36:24.693Z,101132.53
2023-01-28T01:38:56.572Z,101129.53
2023-01-28T01:41:29.087Z,101137.47
2023-01-28T01:44:00.241Z,101127.00
2023-01-28T01:46:37.641Z,101132.34
2023-01-28T01:49:15.109Z,101134.91
2023-01-28T01:51:47.016Z,101133.13
2023-01-28T01:54:18.813Z,101143.44
2023-01-28T01:56:50.272Z,101142.31
2023-01-28T01:59:24.106Z,101134.31
2023-01-28T02:01:53.758Z,101137.81
2023-01-28T02:04:26.589Z,101128.28
2023-01-28T02:06:55.354Z,101130.22
2023-01-28T02:09:27.737Z,101117.81
2023-01-28T02:11:58.193Z,101130.47
2023-01-28T02:14:31.675Z,101130.41
2023-01-28T02:17:02.091Z,101127.16
2023-01-28T02:19:38.305Z,101121.47
2023-01-28T02:22:16.696Z,101124.94
2023-01-28T02:25:15.962Z,101125.97
2023-01-28T02:28:13.519Z,101130.72
2023-01-28T02:30:46.063Z,101129.88
2023-01-28T02:33:19.690Z,101131.66
2023-01-28T02:35:51.302Z,101134.50
2023-01-28T02:38:25.305Z,101132.72
2023-01-28T02:41:05.908Z,101144.00
2023-01-28T02:43:38.436Z,101132.88
2023-01-28T02:46:34.822Z,101138.06
2023-01-28T02:49:06.811Z,101118.81
2023-01-28T02:51:47.898Z,101132.03
2023-01-28T02:54:27.485Z,101138.50
2023-01-28T02:57:07.491Z,101147.34
2023-01-28T02:59:43.361Z,101147.41
2023-01-28T03:02:20.926Z,101145.81
2023-01-28T03:04:56.025Z,101151.06
2023-01-28T03:07:27.671Z,101154.41
2023-01-28T03:09:59.166Z,101159.53
2023-01-28T03:12:47.526Z,101153.38
2023-01-28T03:15:38.405Z,101159.59
2023-01-28T03:18:28.645Z,101152.63
2023-01-28T03:21:23.405Z,101162.16
2023-01-28T03:24:15.443Z,101158.50
2023-01-28T03:27:06.645Z,101154.75
2023-01-28T03:29:55.243Z,101155.53
2023-01-28T03:32:42.989Z,101145.78
2023-01-28T03:35:35.141Z,101151.06
2023-01-28T03:38:18.941Z,101152.97
2023-01-28T03:40:51.895Z,101148.63
2023-01-28T03:43:21.352Z,101145.16
2023-01-28T03:45:51.625Z,101143.28
2023-01-28T03:48:23.464Z,101152.78
2023-01-28T03:50:52.866Z,101155.25
2023-01-28T03:53:21.901Z,101162.41
2023-01-28T03:55:54.120Z,101156.19
2023-01-28T03:58:27.355Z,101163.84
2023-01-28T04:00:56.388Z,101164.72
2023-01-28T04:03:27.218Z,101168.13
2023-01-28T04:06:01.202Z,101016.47
2023-01-28T04:08:49.280Z,101174.50
2023-01-28T04:11:36.360Z,101167.03
2023-01-28T04:14:07.203Z,101172.97
2023-01-28T04:16:58.907Z,101171.19
2023-01-28T04:19:37.426Z,101166.59
2023-01-28T04:22:09.086Z,101139.50
2023-01-28T04:24:37.847Z,101176.13
2023-01-28T04:27:06.629Z,101177.22
2023-01-28T04:29:35.234Z,101164.28
2023-01-28T04:32:23.563Z,101161.75
2023-01-28T04:35:24.199Z,101169.38
2023-01-28T04:38:15.606Z,101158.66
2023-01-28T04:41:04.450Z,101162.00
2023-01-28T04:43:35.500Z,101161.75
2023-01-28T04:46:22.563Z,101166.94
2023-01-28T04:49:03.687Z,101163.44
2023-01-28T04:51:48.708Z,101157.31
2023-01-28T04:54:35.048Z,101158.25
2023-01-28T04:57:05.575Z,101156.38
2023-01-28T04:59:34.255Z,101157.06
2023-01-28T05:02:03.661Z,101166.78
2023-01-28T05:04:32.415Z,101174.00
2023-01-28T05:07:02.563Z,101172.56
2023-01-28T05:09:35.517Z,101182.34
2023-01-28T05:12:04.388Z,101180.03
2023-01-28T05:14:34.716Z,101183.88
2023-01-28T05:17:08.436Z,101191.88
2023-01-28T05:19:37.211Z,101195.84
2023-01-28T05:22:11.186Z,101198.91
2023-01-28T05:24:44.069Z,101199.31
2023-01-28T05:27:12.709Z,101212.13
2023-01-28T05:29:42.170Z,101207.19
2023-01-28T05:32:11.039Z,101208.84
2023-01-28T05:34:39.712Z,101202.09
2023-01-28T05:37:14.220Z,101206.06
2023-01-28T05:39:42.925Z,101181.25
2023-01-28T05:42:11.519Z,101208.94
2023-01-28T05:44:45.734Z,101212.28
2023-01-28T05:47:20.296Z,101209.38
2023-01-28T05:50:15.661Z,101225.97
2023-01-28T05:53:08.976Z,101236.72
2023-01-28T05:55:39.246Z,101234.56
2023-01-28T05:58:07.807Z,101235.88
2023-01-28T06:00:36.985Z,101231.09
2023-01-28T06:03:06.687Z,101246.75
2023-01-28T06:05:37.211Z,101246.44
2023-01-28T06:08:06.816Z,101231.09
2023-01-28T06:10:36.782Z,101261.56
2023-01-28T06:13:06.042Z,101264.06
2023-01-28T06:15:41.568Z,101263.03
2023-01-28T06:18:24.660Z,101262.03
2023-01-28T06:20:54.105Z,101256.75
2023-01-28T06:23:22.598Z,101262.03
2023-01-28T06:25:56.559Z,101254.13
2023-01-28T06:28:26.766Z,101250.56
2023-01-28T06:30:55.531Z,101263.97
2023-01-28T06:33:24.507Z,101234.50
2023-01-28T06:35:53.077Z,101267.91
2023-01-28T06:38:21.781Z,101266.06
2023-01-28T06:40:53.482Z,101265.06
2023-01-28T06:43:27.851Z,101272.97
2023-01-28T06:45:56.901Z,101277.47
2023-01-28T06:48:25.755Z,101283.59
2023-01-28T06:50:54.706Z,101278.47
2023-01-28T06:53:23.595Z,101283.84
2023-01-28T06:55:52.789Z,101293.53
2023-01-28T06:58:21.305Z,101284.13
2023-01-28T07:00:51.185Z,101293.75
2023-01-28T07:03:19.727Z,101292.91
2023-01-28T07:05:48.933Z,101296.31
2023-01-28T07:08:17.392Z,101301.66
2023-01-28T07:10:46.172Z,101310.41
2023-01-28T07:13:14.579Z,101309.00
2023-01-28T07:15:43.467Z,101316.06
2023-01-28T07:18:13.369Z,101310.00
2023-01-28T07:20:41.926Z,101317.13
2023-01-28T07:23:10.451Z,101318.84
2023-01-28T07:25:38.996Z,101320.69
2023-01-28T07:28:07.778Z,101312.38
2023-01-28T07:30:36.244Z,101325.97
2023-01-28T07:33:05.968Z,101331.09
2023-01-28T07:35:35.915Z,101327.66
2023-01-28T07:38:04.513Z,101335.16
2023-01-28T07:40:33.068Z,101333.81
2023-01-28T07:43:01.597Z,101337.53
2023-01-28T07:45:37.980Z,101342.94
2023-01-28T07:48:09.408Z,101344.94
2023-01-28T07:50:40.339Z,101337.16
2023-01-28T07:53:10.907Z,101350.97
2023-01-28T07:55:40.289Z,101351.75
2023-01-28T07:58:12.197Z,101357.97
2023-01-28T08:00:41.004Z,101357.16
2023-01-28T08:03:14.125Z,101360.72
2023-01-28T08:05:46.805Z,101364.22
2023-01-28T08:08:16.732Z,101366.50
2023-01-28T08:10:45.657Z,101365.91
2023-01-28T08:13:15.776Z,101374.97
2023-01-28T08:15:44.558Z,101374.13
2023-01-28T08:18:15.070Z,101373.19
2023-01-28T08:20:47.443Z,101374.97
2023-01-28T08:23:17.406Z,101384.94
2023-01-28T08:25:46.467Z,101384.31
2023-01-28T08:28:16.301Z,101380.97
2023-01-28T08:30:45.064Z,101380.16
2023-01-28T08:33:15.093Z,101390.81
2023-01-28T08:35:46.672Z,101394.56
2023-01-28T08:38:17.859Z,101387.97
2023-01-28T08:40:46.590Z,101389.22
2023-01-28T08:43:15.039Z,101393.19
2023-01-28T08:45:43.778Z,101407.09
2023-01-28T08:48:16.215Z,101403.34
2023-01-28T08:50:46.908Z,101404.13
2023-01-28T08:53:16.984Z,101416.22
2023-01-28T08:55:46.955Z,101412.56
2023-01-28T08:58:17.075Z,101413.59
2023-01-28T09:00:46.659Z,101380.28
2023-01-28T09:03:15.072Z,101405.38
2023-01-28T09:05:44.005Z,101406.25
2023-01-28T09:08:15.548Z,101419.91
2023-01-28T09:10:44.580Z,101424.84
2023-01-28T09:13:15.364Z,101424.53
2023-01-28T09:15:44.218Z,101429.16
2023-01-28T09:18:12.816Z,101431.06
2023-01-28T09:20:42.330Z,101431.34
2023-01-28T09:23:11.588Z,101432.63
2023-01-28T09:25:41.584Z,101433.16
2023-01-28T09:28:10.401Z,101434.16
2023-01-28T09:30:39.979Z,101434.50
2023-01-28T09:33:08.863Z,101434.78
2023-01-28T09:35:38.074Z,101435.72
2023-01-28T09:38:07.167Z,101448.16
2023-01-28T09:40:38.955Z,101441.66
2023-01-28T09:43:38.574Z,101448.31
2023-01-28T09:46:08.737Z,101448.06
2023-01-28T09:48:41.897Z,101453.13
2023-01-28T09:51:12.636Z,101446.81
2023-01-28T09:53:48.996Z,101444.00
2023-01-28T09:56:26.959Z,101453.34
2023-01-28T09:58:58.317Z,101447.97
2023-01-28T10:01:40.687Z,101455.91
2023-01-28T10:04:23.396Z,101459.31
2023-01-28T10:07:01.486Z,101468.03
2023-01-28T10:09:41.486Z,101460.19
2023-01-28T10:12:29.175Z,101288.59
2023-01-28T10:15:26.252Z,101467.00
2023-01-28T10:18:14.679Z,101460.09
2023-01-28T10:20:49.211Z,101465.72
2023-01-28T10:23:22.612Z,101464.63
2023-01-28T10:25:51.373Z,101466.25
2023-01-28T10:28:23.279Z,101466.06
2023-01-28T10:30:53.614Z,101466.16
2023-01-28T10:33:25.090Z,101458.31
2023-01-28T10:35:53.791Z,101462.66
2023-01-28T10:38:24.747Z,101461.81
2023-01-28T10:40:53.526Z,101456.78
2023-01-28T10:43:26.321Z,101412.84
2023-01-28T10:46:02.591Z,101461.88
2023-01-28T10:48:35.207Z,101454.19
2023-01-28T10:51:06.570Z,101452.31
2023-01-28T10:53:37.136Z,101449.50
2023-01-28T10:56:07.730Z,101448.56
2023-01-28T10:58:48.213Z,101445.00
2023-01-28T11:01:24.719Z,101438.16
2023-01-28T11:04:00.336Z,101432.56
2023-01-28T11:06:30.618Z,101407.22
2023-01-28T11:09:01.243Z,101432.53
2023-01-28T11:11:31.033Z,101432.19
2023-01-28T11:14:01.425Z,101439.03
2023-01-28T11:16:31.504Z,101438.00
2023-01-28T11:19:05.216Z,101428.25
2023-01-28T11:21:35.769Z,101422.59
2023-01-28T11:24:07.146Z,101369.38
2023-01-28T11:26:38.717Z,101423.88
2023-01-28T11:29:08.126Z,101428.13
2023-01-28T11:31:44.694Z,101427.97
2023-01-28T11:34:19.254Z,101418.91
2023-01-28T11:36:55.277Z,101418.13
2023-01-28T11:39:26.233Z,101416.16
2023-01-28T11:41:55.389Z,101425.59
2023-01-28T11:44:25.596Z,101410.03
2023-01-28T11:47:10.660Z,101409.41
2023-01-28T11:49:55.321Z,101416.16
2023-01-28T11:52:55.342Z,101363.31
2023-01-28T11:55:39.237Z,101388.22
2023-01-28T11:58:20.395Z,101404.09
2023-01-28T12:00:57.241Z,101401.53
2023-01-28T12:03:48.380Z,101312.25
2023-01-28T12:06:30.056Z,101405.03
2023-01-28T12:09:08.000Z,101396.16
2023-01-28T12:12:07.355Z,101400.78
2023-01-28T12:14:49.379Z,101393.41
2023-01-28T12:17:32.729Z,101394.41
2023-01-28T12:20:19.689Z,101394.41
2023-01-28T12:23:26.749Z,101397.06
2023-01-28T12:26:07.947Z,101402.84
2023-01-28T12:28:58.138Z,101398.97
2023-01-28T12:31:56.767Z,101384.22
2023-01-28T12:34:53.792Z,101395.56
2023-01-28T12:37:33.531Z,101346.84
2023-01-28T12:40:17.941Z,101392.81
2023-01-28T12:42:52.405Z,101406.84
2023-01-28T12:45:27.230Z,101395.38
2023-01-28T12:48:02.452Z,101398.78
2023-01-28T12:50:35.059Z,101396.91
2023-01-28T12:53:21.761Z,101384.28
2023-01-28T12:55:55.593Z,101382.94
2023-01-28T12:58:36.921Z,101368.84
2023-01-28T13:01:10.937Z,101366.63
2023-01-28T13:03:47.216Z,101373.53
2023-01-28T13:06:21.369Z,101342.59
2023-01-28T13:08:53.183Z,101363.94
2023-01-28T13:11:22.449Z,101351.78
2023-01-28T13:13:51.457Z,101358.06
2023-01-28T13:16:28.674Z,101353.03
2023-01-28T13:19:10.437Z,101350.06
2023-01-28T13:21:48.617Z,101359.84
2023-01-28T13:24:31.839Z,101317.72
2023-01-28T13:27:00.483Z,101351.88
2023-01-28T13:29:33.371Z,101364.59
2023-01-28T13:32:04.342Z,101365.38
2023-01-28T13:34:36.777Z,101359.09
2023-01-28T13:37:18.015Z,101364.31
2023-01-28T13:39:52.378Z,101374.50
2023-01-28T13:42:27.065Z,101369.00
2023-01-28T13:44:56.408Z,101370.47
2023-01-28T13:47:31.409Z,101348.03
2023-01-28T13:50:03.891Z,101362.03
2023-01-28T13:52:38.000Z,101362.69
2023-01-28T13:55:37.174Z,101355.25
2023-01-28T13:58:37.393Z,101361.13
2023-01-28T14:01:31.945Z,101364.88
2023-01-28T14:04:32.413Z,101370.75
2023-01-28T14:07:11.503Z,101378.34
2023-01-28T14:10:07.060Z,101392.13
2023-01-28T14:13:16.840Z,101386.56
2023-01-28T14:16:01.764Z,101386.91
2023-01-28T14:18:35.097Z,101387.84
2023-01-28T14:21:05.983Z,101382.16
2023-01-28T14:23:35.779Z,101379.31
2023-01-28T14:26:17.823Z,101385.38
2023-01-28T14:28:54.900Z,101397.22
2023-01-28T14:31:29.373Z,101392.53
2023-01-28T14:34:06.541Z,101397.78
2023-01-28T14:36:39.252Z,101391.16
2023-01-28T14:39:13.775Z,101391.16
2023-01-28T14:41:45.569Z,101397.09
2023-01-28T14:44:26.656Z,101404.59
2023-01-28T14:47:08.932Z,101409.13
2023-01-28T14:49:49.187Z,101409.69
2023-01-28T14:52:43.022Z,101400.50
2023-01-28T14:55:28.424Z,101403.03
2023-01-28T14:58:00.155Z,101420.47
2023-01-28T15:00:30.603Z,101416.28
2023-01-28T15:03:01.879Z,101415.56
2023-01-28T15:05:32.011Z,101419.06
2023-01-28T15:08:01.597Z,101427.13
2023-01-28T15:10:33.092Z,101423.81
2023-01-28T15:13:07.638Z,101429.41
2023-01-28T15:15:38.393Z,101426.84
2023-01-28T15:18:15.413Z,101394.78
2023-01-28T15:20:46.487Z,101437.38
2023-01-28T15:23:18.584Z,101440.88
2023-01-28T15:25:47.286Z,101446.84
2023-01-28T15:28:25.671Z,101441.53
2023-01-28T15:30:54.556Z,101453.19
2023-01-28T15:33:25.641Z,101459.06
2023-01-28T15:35:56.003Z,101425.38
2023-01-28T15:38:25.807Z,101433.25
2023-01-28T15:40:58.475Z,101450.16
2023-01-28T15:43:30.355Z,101459.16
2023-01-28T15:46:00.576Z,101454.81
2023-01-28T15:48:33.696Z,101457.66
2023-01-28T15:51:05.564Z,101460.88
2023-01-28T15:53:37.876Z,101465.31
2023-01-28T15:56:11.589Z,101471.75
2023-01-28T15:58:42.602Z,101462.19
2023-01-28T16:01:19.965Z,101470.16
2023-01-28T16:04:02.794Z,101435.81
2023-01-28T16:06:36.051Z,101466.66
2023-01-28T16:09:07.712Z,101467.72
2023-01-28T16:11:44.949Z,101466.94
2023-01-28T16:14:26.398Z,101464.31
2023-01-28T16:16:56.213Z,101464.38
2023-01-28T16:19:34.590Z,101476.03
2023-01-28T16:22:03.878Z,101477.94
2023-01-28T16:24:36.538Z,101476.63
2023-01-28T16:27:07.696Z,101492.63
2023-01-28T16:29:37.346Z,101491.00
2023-01-28T16:32:06.087Z,101461.44
2023-01-28T16:34:36.031Z,101504.63
2023-01-28T16:37:10.531Z,101507.44
2023-01-28T16:39:39.153Z,101516.53
2023-01-28T16:42:07.620Z,101521.81
2023-01-28T16:44:36.176Z,101525.81
2023-01-28T16:47:06.685Z,101528.72
2023-01-28T16:49:37.445Z,101516.16
2023-01-28T16:52:07.364Z,101528.22
2023-01-28T16:54:36.281Z,101540.84
2023-01-28T16:57:04.957Z,101538.38
2023-01-28T16:59:33.689Z,101539.78
2023-01-28T17:02:02.368Z,101540.91
2023-01-28T17:04:30.830Z,101553.47
2023-01-28T17:07:02.503Z,101556.28
2023-01-28T17:09:34.398Z,101547.66
2023-01-28T17:12:04.589Z,101555.94
2023-01-28T17:14:33.142Z,101558.00
2023-01-28T17:17:01.710Z,101556.31
2023-01-28T17:19:31.251Z,101563.28
2023-01-28T17:22:01.148Z,101572.53
2023-01-28T17:24:31.215Z,101575.53
2023-01-28T17:26:59.967Z,101579.09
2023-01-28T17:29:32.959Z,101579.19
2023-01-28T17:32:01.686Z,101585.75
2023-01-28T17:34:30.189Z,101586.97
2023-01-28T17:36:58.688Z,101588.00
2023-01-28T17:39:28.640Z,101590.56
2023-01-28T17:41:57.188Z,101594.22
2023-01-28T17:44:25.676Z,101601.47
2023-01-28T17:46:54.265Z,101608.72
2023-01-28T17:49:22.782Z,101613.16
2023-01-28T17:51:53.406Z,101618.69
2023-01-28T17:54:22.097Z,101627.47
2023-01-28T17:56:52.096Z,101630.81
2023-01-28T17:59:22.657Z,101629.88
2023-01-28T18:01:54.916Z,101645.00
2023-01-28T18:04:23.552Z,101645.00
2023-01-28T18:06:52.003Z,101653.09
2023-01-28T18:09:21.021Z,101646.31
2023-01-28T18:11:49.639Z,101653.75
2023-01-28T18:14:20.166Z,101647.91
2023-01-28T18:16:48.586Z,101639.31
2023-01-28T18:19:17.594Z,101649.78
2023-01-28T18:21:53.092Z,101655.50
2023-01-28T18:24:24.065Z,101652.47
2023-01-28T18:26:55.596Z,101653.56
2023-01-28T18:29:25.743Z,101654.41
2023-01-28T18:31:55.740Z,101659.84
2023-01-28T18:34:25.597Z,101660.47
2023-01-28T18:36:54.782Z,101668.22
2023-01-28T18:39:23.504Z,101669.69
2023-01-28T18:41:55.002Z,101667.25
2023-01-28T18:44:26.572Z,101679.03
2023-01-28T18:46:55.654Z,101675.84
2023-01-28T18:49:24.297Z,101676.75
2023-01-28T18:51:52.874Z,101680.25
2023-01-28T18:54:21.639Z,101673.44
2023-01-28T18:56:50.913Z,101640.81
2023-01-28T18:59:19.949Z,101674.44
2023-01-28T19:01:49.988Z,101678.09
2023-01-28T19:04:19.221Z,101679.44
2023-01-28T19:06:49.364Z,101678.66
2023-01-28T19:09:19.344Z,101683.44
2023-01-28T19:11:48.482Z,101679.31
2023-01-28T19:14:17.953Z,101681.44
2023-01-28T19:16:46.847Z,101673.84
2023-01-28T19:19:17.569Z,101690.56
2023-01-28T19:21:46.336Z,101701.25
2023-01-28T19:24:18.625Z,101703.19
2023-01-28T19:26:47.223Z,101706.88
2023-01-28T19:29:16.441Z,101708.81
2023-01-28T19:31:48.981Z,101691.06
2023-01-28T19:34:19.974Z,101720.34
2023-01-28T19:36:48.753Z,101722.97
2023-01-28T19:39:18.015Z,101721.28
2023-01-28T19:41:46.694Z,101725.50
2023-01-28T19:44:18.470Z,101715.72
2023-01-28T19:46:46.984Z,101725.97
2023-01-28T19:49:15.797Z,101718.00
2023-01-28T19:51:45.790Z,101726.72
2023-01-28T19:54:14.846Z,101721.56
2023-01-28T19:56:43.376Z,101686.59
2023-01-28T19:59:12.963Z,101731.34
2023-01-28T20:01:41.530Z,101728.00
2023-01-28T20:04:10.228Z,101729.91
2023-01-28T20:06:38.933Z,101734.72
2023-01-28T20:09:15.301Z,101704.16
2023-01-28T20:11:44.063Z,101735.97
2023-01-28T20:14:14.694Z,101741.25
2023-01-28T20:16:43.481Z,101738.53
2023-01-28T20:19:16.104Z,101740.56
2023-01-28T20:21:45.559Z,101742.53
2023-01-28T20:24:17.486Z,101745.09
2023-01-28T20:26:46.597Z,101746.81
2023-01-28T20:29:18.830Z,101711.66
2023-01-28T20:32:00.908Z,101758.16
2023-01-28T20:34:36.473Z,101762.56
2023-01-28T20:37:06.723Z,101755.53
2023-01-28T20:39:36.847Z,101755.53
2023-01-28T20:42:06.461Z,101754.66
2023-01-28T20:44:34.979Z,101761.91
2023-01-28T20:47:03.840Z,101759.94
2023-01-28T20:49:32.350Z,101759.94
2023-01-28T20:52:00.832Z,101764.28
2023-01-28T20:54:29.401Z,101771.41
2023-01-28T20:56:59.245Z,101776.69
2023-01-28T20:59:29.331Z,101781.03
2023-01-28T21:01:57.767Z,101779.31
2023-01-28T21:04:26.243Z,101781.91
2023-01-28T21:06:54.943Z,101788.03
2023-01-28T21:09:25.595Z,101792.56
2023-01-28T21:11:54.131Z,101799.91
2023-01-28T21:14:24.068Z,101796.00
2023-01-28T21:16:53.304Z,101803.28
2023-01-28T21:19:21.866Z,101803.97
2023-01-28T21:21:50.279Z,101807.00
2023-01-28T21:24:19.414Z,101800.34
2023-01-28T21:26:47.897Z,101801.53
2023-01-28T21:29:18.181Z,101808.88
2023-01-28T21:31:48.158Z,101802.31
2023-01-28T21:34:17.860Z,101807.88
2023-01-28T21:36:46.445Z,101806.34
2023-01-28T21:39:15.027Z,101807.31
2023-01-28T21:41:43.556Z,101805.00
2023-01-28T21:44:13.213Z,101770.94
2023-01-28T21:46:41.861Z,101808.81
2023-01-28T21:49:12.968Z,101806.25
2023-01-28T21:51:46.393Z,101809.22
2023-01-28T21:54:18.008Z,101804.38
2023-01-28T21:56:47.079Z,101822.03
2023-01-28T21:59:32.706Z,101819.47
2023-01-28T22:02:02.862Z,101816.38
2023-01-28T22:04:35.141Z,101806.63
2023-01-28T22:07:04.555Z,101812.81
2023-01-28T22:09:33.822Z,101813.41
2023-01-28T22:12:03.745Z,101820.81
2023-01-28T22:14:32.424Z,101818.63
2023-01-28T22:17:01.074Z,101819.94
2023-01-28T22:19:29.598Z,101813.19
2023-01-28T22:21:59.420Z,101817.88
2023-01-28T22:24:29.486Z,101822.44
2023-01-28T22:26:58.573Z,101814.81
2023-01-28T22:29:27.246Z,101829.81
2023-01-28T22:31:56.368Z,101826.44
2023-01-28T22:34:25.140Z,101822.22
2023-01-28T22:36:53.608Z,101821.53
2023-01-28T22:39:23.494Z,101818.06
2023-01-28T22:41:52.064Z,101816.44
2023-01-28T22:44:21.235Z,101815.06
2023-01-28T22:46:50.035Z,101817.91
2023-01-28T22:49:19.888Z,101813.84
2023-01-28T22:51:48.361Z,101820.41
2023-01-28T22:54:17.379Z,101816.22
2023-01-28T22:56:48.125Z,101821.81
2023-01-28T22:59:17.891Z,101821.31
2023-01-28T23:01:47.077Z,101813.59
2023-01-28T23:04:15.628Z,101812.22
2023-01-28T23:06:44.070Z,101818.72
2023-01-28T23:09:12.587Z,101828.69
2023-01-28T23:11:41.135Z,101828.84
2023-01-28T23:14:29.525Z,101834.94
2023-01-28T23:17:27.020Z,101835.13
2023-01-28T23:20:13.044Z,101838.84
2023-01-28T23:22:59.250Z,101848.19
2023-01-28T23:25:27.811Z,101846.69
2023-01-28T23:27:56.251Z,101843.06
2023-01-28T23:30:26.289Z,101839.53
2023-01-28T23:32:57.758Z,101837.91
2023-01-28T23:35:27.173Z,101845.66
2023-01-28T23:37:56.698Z,101846.41
2023-01-28T23:40:27.339Z,101820.63
2023-01-28T23:42:56.756Z,101844.88
2023-01-28T23:45:27.769Z,101841.56
2023-01-28T23:47:56.303Z,101851.34
2023-01-28T23:50:24.807Z,101848.91
2023-01-28T23:52:53.373Z,101849.00
2023-01-28T23:55:21.916Z,101836.09
2023-01-28T23:57:50.545Z,101844.00
